sensor_id;sensor_type;location;lat;lon;timestamp;pressure;altitude;pressure_sealevel;temperature;humidity
54588;BME280;40484;50.198;19.576;2022-09-30T00:02:14;100884.14;;;15.36;52.69
54588;BME280;40484;50.198;19.576;2022-09-30T00:07:16;100881.37;;;15.27;53.10
54588;BME280;40484;50.198;19.576;2022-09-30T00:12:17;100871.26;;;15.31;53.00
54588;BME280;40484;50.198;19.576;2022-09-30T00:17:20;100866.87;;;15.31;53.11
54588;BME280;40484;50.198;19.576;2022-09-30T00:22:21;100864.02;;;15.38;52.99
54588;BME280;40484;50.198;19.576;2022-09-30T00:27:23;100859.21;;;15.26;53.43
54588;BME280;40484;50.198;19.576;2022-09-30T00:32:24;100863.09;;;15.21;53.61
54588;BME280;40484;50.198;19.576;2022-09-30T00:37:26;100875.02;;;15.32;53.35
54588;BME280;40484;50.198;19.576;2022-09-30T00:42:27;100859.95;;;15.41;53.23
54588;BME280;40484;50.198;19.576;2022-09-30T00:47:39;100871.59;;;15.47;53.21
54588;BME280;40484;50.198;19.576;2022-09-30T00:58:30;100884.35;;;15.58;53.01
54588;BME280;40484;50.198;19.576;2022-09-30T01:03:34;100887.04;;;15.61;52.98
54588;BME280;40484;50.198;19.576;2022-09-30T01:08:36;100889.16;;;15.59;53.00
54588;BME280;40484;50.198;19.576;2022-09-30T01:13:40;100894.94;;;15.52;53.03
54588;BME280;40484;50.198;19.576;2022-09-30T01:19:17;100890.56;;;15.50;53.08
54588;BME280;40484;50.198;19.576;2022-09-30T01:40:43;100897.83;;;15.54;53.35
54588;BME280;40484;50.198;19.576;2022-09-30T01:50:58;100910.55;;;15.57;53.53
54588;BME280;40484;50.198;19.576;2022-09-30T01:56:01;100891.78;;;15.53;53.61
54588;BME280;40484;50.198;19.576;2022-09-30T02:01:05;100899.70;;;15.54;53.61
54588;BME280;40484;50.198;19.576;2022-09-30T02:06:09;100905.08;;;15.36;54.03
54588;BME280;40484;50.198;19.576;2022-09-30T02:11:12;100909.92;;;15.36;53.93
54588;BME280;40484;50.198;19.576;2022-09-30T02:16:16;100914.89;;;15.39;53.98
54588;BME280;40484;50.198;19.576;2022-09-30T02:21:25;100911.10;;;15.39;54.04
54588;BME280;40484;50.198;19.576;2022-09-30T02:26:49;100909.05;;;15.26;54.37
54588;BME280;40484;50.198;19.576;2022-09-30T02:31:54;100905.04;;;15.28;54.35
54588;BME280;40484;50.198;19.576;2022-09-30T02:37:16;100896.08;;;15.25;54.62
54588;BME280;40484;50.198;19.576;2022-09-30T02:42:05;100900.41;;;15.28;54.49
54588;BME280;40484;50.198;19.576;2022-09-30T02:47:14;100892.67;;;15.28;54.48
54588;BME280;40484;50.198;19.576;2022-09-30T02:57:41;100894.85;;;15.24;54.47
54588;BME280;40484;50.198;19.576;2022-09-30T03:02:42;100898.84;;;15.12;54.92
54588;BME280;40484;50.198;19.576;2022-09-30T03:07:43;100900.30;;;14.98;55.37
54588;BME280;40484;50.198;19.576;2022-09-30T03:29:48;100910.98;;;14.87;56.02
54588;BME280;40484;50.198;19.576;2022-09-30T03:45:59;100919.84;;;15.07;55.83
54588;BME280;40484;50.198;19.576;2022-09-30T03:50:58;100928.25;;;14.93;56.15
54588;BME280;40484;50.198;19.576;2022-09-30T03:56:01;100928.35;;;14.99;56.09
54588;BME280;40484;50.198;19.576;2022-09-30T04:01:02;100928.14;;;15.12;55.70
54588;BME280;40484;50.198;19.576;2022-09-30T04:06:04;100937.02;;;15.07;55.83
54588;BME280;40484;50.198;19.576;2022-09-30T04:11:05;100951.55;;;15.02;55.92
54588;BME280;40484;50.198;19.576;2022-09-30T04:16:07;100944.31;;;14.95;56.14
54588;BME280;40484;50.198;19.576;2022-09-30T04:21:10;100940.70;;;14.87;56.31
54588;BME280;40484;50.198;19.576;2022-09-30T04:26:13;100947.23;;;14.97;56.04
54588;BME280;40484;50.198;19.576;2022-09-30T04:31:15;100952.80;;;15.01;55.94
54588;BME280;40484;50.198;19.576;2022-09-30T04:36:21;100957.15;;;14.91;56.12
54588;BME280;40484;50.198;19.576;2022-09-30T04:41:22;100954.58;;;14.95;56.06
54588;BME280;40484;50.198;19.576;2022-09-30T04:46:25;100959.73;;;14.87;56.22
54588;BME280;40484;50.198;19.576;2022-09-30T04:51:27;100964.16;;;14.99;56.09
54588;BME280;40484;50.198;19.576;2022-09-30T04:56:29;100963.05;;;15.01;55.97
54588;BME280;40484;50.198;19.576;2022-09-30T05:01:31;100959.05;;;15.03;55.95
54588;BME280;40484;50.198;19.576;2022-09-30T05:06:33;100956.38;;;14.99;55.98
54588;BME280;40484;50.198;19.576;2022-09-30T05:11:34;100953.26;;;14.99;56.05
54588;BME280;40484;50.198;19.576;2022-09-30T05:17:04;100963.78;;;15.09;55.77
54588;BME280;40484;50.198;19.576;2022-09-30T05:22:05;100973.59;;;15.10;55.84
54588;BME280;40484;50.198;19.576;2022-09-30T05:27:07;100976.81;;;15.06;55.97
54588;BME280;40484;50.198;19.576;2022-09-30T05:32:08;100976.32;;;14.96;56.14
54588;BME280;40484;50.198;19.576;2022-09-30T05:37:10;100982.35;;;14.87;56.59
54588;BME280;40484;50.198;19.576;2022-09-30T05:42:12;100982.71;;;14.89;56.65
54588;BME280;40484;50.198;19.576;2022-09-30T05:47:13;100991.76;;;14.86;56.72
54588;BME280;40484;50.198;19.576;2022-09-30T05:52:15;100983.22;;;14.97;56.67
54588;BME280;40484;50.198;19.576;2022-09-30T05:57:16;100980.68;;;14.99;56.67
54588;BME280;40484;50.198;19.576;2022-09-30T06:02:18;100986.20;;;15.07;56.67
54588;BME280;40484;50.198;19.576;2022-09-30T06:07:19;100989.63;;;15.16;56.62
54588;BME280;40484;50.198;19.576;2022-09-30T06:12:21;100991.05;;;15.31;56.37
54588;BME280;40484;50.198;19.576;2022-09-30T06:17:23;101000.74;;;15.26;56.45
54588;BME280;40484;50.198;19.576;2022-09-30T06:22:24;100996.51;;;15.29;56.42
54588;BME280;40484;50.198;19.576;2022-09-30T06:27:26;100996.40;;;15.24;56.51
54588;BME280;40484;50.198;19.576;2022-09-30T06:32:28;100992.33;;;15.30;56.48
54588;BME280;40484;50.198;19.576;2022-09-30T06:37:30;100997.64;;;15.37;56.43
54588;BME280;40484;50.198;19.576;2022-09-30T06:42:32;101006.12;;;15.31;56.61
54588;BME280;40484;50.198;19.576;2022-09-30T06:47:33;101006.17;;;15.14;56.81
54588;BME280;40484;50.198;19.576;2022-09-30T06:52:35;101005.29;;;15.31;56.64
54588;BME280;40484;50.198;19.576;2022-09-30T06:57:38;101006.03;;;15.37;56.44
54588;BME280;40484;50.198;19.576;2022-09-30T07:03:10;101007.85;;;15.52;56.17
54588;BME280;40484;50.198;19.576;2022-09-30T07:08:14;101019.16;;;15.40;56.34
54588;BME280;40484;50.198;19.576;2022-09-30T07:13:16;101020.15;;;15.43;56.37
54588;BME280;40484;50.198;19.576;2022-09-30T07:18:17;101027.70;;;15.54;56.11
54588;BME280;40484;50.198;19.576;2022-09-30T07:23:21;101029.59;;;15.43;56.26
54588;BME280;40484;50.198;19.576;2022-09-30T07:28:24;101033.91;;;15.47;56.24
54588;BME280;40484;50.198;19.576;2022-09-30T07:33:30;101033.94;;;15.45;56.46
54588;BME280;40484;50.198;19.576;2022-09-30T07:38:36;101033.72;;;15.57;56.20
54588;BME280;40484;50.198;19.576;2022-09-30T07:43:37;101039.88;;;15.53;56.19
54588;BME280;40484;50.198;19.576;2022-09-30T07:48:43;101042.09;;;15.59;56.19
54588;BME280;40484;50.198;19.576;2022-09-30T07:53:48;101047.19;;;15.43;56.52
54588;BME280;40484;50.198;19.576;2022-09-30T07:58:54;101055.20;;;15.51;56.33
54588;BME280;40484;50.198;19.576;2022-09-30T08:03:58;101057.59;;;15.59;56.36
54588;BME280;40484;50.198;19.576;2022-09-30T08:08:59;101059.25;;;15.49;56.51
54588;BME280;40484;50.198;19.576;2022-09-30T08:14:02;101060.75;;;15.33;57.13
54588;BME280;40484;50.198;19.576;2022-09-30T08:19:03;101059.78;;;15.28;57.25
54588;BME280;40484;50.198;19.576;2022-09-30T08:24:32;101064.06;;;15.49;57.04
54588;BME280;40484;50.198;19.576;2022-09-30T08:29:33;101069.13;;;15.58;57.04
54588;BME280;40484;50.198;19.576;2022-09-30T08:34:35;101073.35;;;15.71;56.77
54588;BME280;40484;50.198;19.576;2022-09-30T08:39:37;101072.47;;;15.74;56.82
54588;BME280;40484;50.198;19.576;2022-09-30T08:49:55;101068.33;;;15.70;56.86
54588;BME280;40484;50.198;19.576;2022-09-30T08:54:56;101068.56;;;15.69;56.84
54588;BME280;40484;50.198;19.576;2022-09-30T09:00:02;101067.51;;;15.81;56.85
54588;BME280;40484;50.198;19.576;2022-09-30T09:05:16;101071.44;;;15.96;56.77
54588;BME280;40484;50.198;19.576;2022-09-30T09:10:29;101078.63;;;16.03;56.50
54588;BME280;40484;50.198;19.576;2022-09-30T09:15:39;101081.29;;;15.84;56.63
54588;BME280;40484;50.198;19.576;2022-09-30T09:20:41;101088.58;;;15.97;56.51
54588;BME280;40484;50.198;19.576;2022-09-30T09:25:42;101086.02;;;15.89;56.60
54588;BME280;40484;50.198;19.576;2022-09-30T09:31:17;101094.13;;;16.03;56.32
54588;BME280;40484;50.198;19.576;2022-09-30T09:47:12;101094.04;;;16.09;56.42
54588;BME280;40484;50.198;19.576;2022-09-30T09:52:39;101094.69;;;16.20;56.27
54588;BME280;40484;50.198;19.576;2022-09-30T09:57:40;101095.57;;;16.17;56.39
54588;BME280;40484;50.198;19.576;2022-09-30T10:02:41;101100.48;;;16.12;56.52
54588;BME280;40484;50.198;19.576;2022-09-30T10:08:15;101103.98;;;16.27;56.00
54588;BME280;40484;50.198;19.576;2022-09-30T10:13:23;101103.59;;;16.13;56.23
54588;BME280;40484;50.198;19.576;2022-09-30T10:18:35;101115.42;;;16.19;56.21
54588;BME280;40484;50.198;19.576;2022-09-30T10:23:39;101115.98;;;16.24;56.21
54588;BME280;40484;50.198;19.576;2022-09-30T10:28:52;101122.45;;;16.25;56.02
54588;BME280;40484;50.198;19.576;2022-09-30T10:34:19;101115.45;;;16.41;55.95
54588;BME280;40484;50.198;19.576;2022-09-30T10:39:23;101130.42;;;16.58;55.82
54588;BME280;40484;50.198;19.576;2022-09-30T10:44:25;101129.52;;;16.62;55.63
54588;BME280;40484;50.198;19.576;2022-09-30T10:55:06;101141.13;;;16.81;55.40
54588;BME280;40484;50.198;19.576;2022-09-30T11:00:22;101147.41;;;16.81;55.42
54588;BME280;40484;50.198;19.576;2022-09-30T11:05:39;101145.91;;;16.61;55.49
54588;BME280;40484;50.198;19.576;2022-09-30T11:10:58;101149.68;;;16.49;55.74
54588;BME280;40484;50.198;19.576;2022-09-30T11:37:52;101170.08;;;16.92;55.36
54588;BME280;40484;50.198;19.576;2022-09-30T11:43:13;101172.68;;;16.98;55.37
54588;BME280;40484;50.198;19.576;2022-09-30T11:48:23;101180.05;;;16.96;55.33
54588;BME280;40484;50.198;19.576;2022-09-30T11:53:45;101182.42;;;17.03;55.32
54588;BME280;40484;50.198;19.576;2022-09-30T11:58:45;101183.50;;;17.13;55.19
54588;BME280;40484;50.198;19.576;2022-09-30T12:04:13;101187.09;;;17.31;54.80
54588;BME280;40484;50.198;19.576;2022-09-30T12:09:21;101182.13;;;17.37;54.61
54588;BME280;40484;50.198;19.576;2022-09-30T12:14:35;101191.72;;;17.40;54.63
54588;BME280;40484;50.198;19.576;2022-09-30T12:19:42;101193.80;;;17.31;54.80
54588;BME280;40484;50.198;19.576;2022-09-30T12:24:43;101182.80;;;17.43;54.77
54588;BME280;40484;50.198;19.576;2022-09-30T12:30:00;101194.33;;;17.36;54.88
54588;BME280;40484;50.198;19.576;2022-09-30T12:35:43;101204.46;;;17.03;55.42
54588;BME280;40484;50.198;19.576;2022-09-30T12:51:33;101210.23;;;17.00;55.52
54588;BME280;40484;50.198;19.576;2022-09-30T12:57:05;101217.59;;;17.09;55.60
54588;BME280;40484;50.198;19.576;2022-09-30T13:02:20;101217.02;;;17.15;55.52
54588;BME280;40484;50.198;19.576;2022-09-30T13:07:22;101225.02;;;17.05;55.39
54588;BME280;40484;50.198;19.576;2022-09-30T13:12:26;101238.17;;;17.09;55.35
54588;BME280;40484;50.198;19.576;2022-09-30T13:17:27;101242.17;;;16.88;55.59
54588;BME280;40484;50.198;19.576;2022-09-30T13:32:39;101257.13;;;16.49;56.81
54588;BME280;40484;50.198;19.576;2022-09-30T13:37:42;101253.95;;;16.51;57.00
54588;BME280;40484;50.198;19.576;2022-09-30T13:42:45;101266.67;;;16.43;57.39
54588;BME280;40484;50.198;19.576;2022-09-30T13:48:10;101263.04;;;16.59;57.36
54588;BME280;40484;50.198;19.576;2022-09-30T13:59:12;101255.30;;;16.68;57.23
54588;BME280;40484;50.198;19.576;2022-09-30T14:09:46;101270.16;;;16.11;58.61
54588;BME280;40484;50.198;19.576;2022-09-30T14:25:03;101274.88;;;15.89;59.37
54588;BME280;40484;50.198;19.576;2022-09-30T14:30:21;101281.47;;;15.82;59.47
54588;BME280;40484;50.198;19.576;2022-09-30T14:35:50;101274.84;;;16.20;58.85
54588;BME280;40484;50.198;19.576;2022-09-30T14:40:53;101270.10;;;16.51;58.22
54588;BME280;40484;50.198;19.576;2022-09-30T14:45:58;101285.25;;;16.60;57.90
54588;BME280;40484;50.198;19.576;2022-09-30T14:51:10;101294.45;;;16.75;57.14
54588;BME280;40484;50.198;19.576;2022-09-30T14:56:19;101292.82;;;16.59;57.35
54588;BME280;40484;50.198;19.576;2022-09-30T15:01:26;101294.05;;;16.62;57.35
54588;BME280;40484;50.198;19.576;2022-09-30T15:06:29;101285.70;;;16.95;56.90
54588;BME280;40484;50.198;19.576;2022-09-30T15:11:30;101290.09;;;17.19;56.41
54588;BME280;40484;50.198;19.576;2022-09-30T15:16:42;101293.82;;;17.41;55.92
54588;BME280;40484;50.198;19.576;2022-09-30T15:21:36;101307.73;;;17.39;55.63
54588;BME280;40484;50.198;19.576;2022-09-30T15:26:38;101316.14;;;17.28;55.60
54588;BME280;40484;50.198;19.576;2022-09-30T15:31:46;101315.16;;;17.35;55.44
54588;BME280;40484;50.198;19.576;2022-09-30T15:36:58;101323.33;;;17.16;55.44
54588;BME280;40484;50.198;19.576;2022-09-30T15:42:35;101344.58;;;17.13;55.39
54588;BME280;40484;50.198;19.576;2022-09-30T15:47:38;101348.98;;;16.92;55.87
54588;BME280;40484;50.198;19.576;2022-09-30T15:52:39;101338.20;;;16.95;56.01
54588;BME280;40484;50.198;19.576;2022-09-30T15:57:46;101339.37;;;17.11;55.84
54588;BME280;40484;50.198;19.576;2022-09-30T16:02:48;101340.43;;;17.33;55.52
54588;BME280;40484;50.198;19.576;2022-09-30T16:07:50;101335.35;;;17.23;55.20
54588;BME280;40484;50.198;19.576;2022-09-30T16:12:51;101344.61;;;16.75;56.02
54588;BME280;40484;50.198;19.576;2022-09-30T16:17:53;101351.30;;;16.52;56.58
54588;BME280;40484;50.198;19.576;2022-09-30T16:22:55;101366.28;;;16.45;56.84
54588;BME280;40484;50.198;19.576;2022-09-30T16:33:05;101373.84;;;16.31;57.30
54588;BME280;40484;50.198;19.576;2022-09-30T16:38:08;101387.91;;;16.01;57.95
54588;BME280;40484;50.198;19.576;2022-09-30T16:43:09;101400.74;;;15.97;58.25
54588;BME280;40484;50.198;19.576;2022-09-30T16:48:15;101397.98;;;16.00;58.14
54588;BME280;40484;50.198;19.576;2022-09-30T16:53:17;101392.98;;;16.14;58.09
54588;BME280;40484;50.198;19.576;2022-09-30T16:58:18;101394.98;;;16.34;57.63
54588;BME280;40484;50.198;19.576;2022-09-30T17:03:48;101395.49;;;16.56;57.18
54588;BME280;40484;50.198;19.576;2022-09-30T17:08:49;101398.33;;;16.63;56.90
54588;BME280;40484;50.198;19.576;2022-09-30T17:13:53;101402.16;;;16.60;56.76
54588;BME280;40484;50.198;19.576;2022-09-30T17:18:54;101393.23;;;16.54;56.97
54588;BME280;40484;50.198;19.576;2022-09-30T17:23:56;101387.46;;;16.72;56.74
54588;BME280;40484;50.198;19.576;2022-09-30T17:28:59;101386.86;;;16.98;56.21
54588;BME280;40484;50.198;19.576;2022-09-30T17:34:02;101399.97;;;17.03;55.98
54588;BME280;40484;50.198;19.576;2022-09-30T17:39:05;101407.29;;;17.07;55.75
54588;BME280;40484;50.198;19.576;2022-09-30T17:44:07;101414.59;;;17.09;55.72
54588;BME280;40484;50.198;19.576;2022-09-30T17:49:13;101422.87;;;17.15;55.53
54588;BME280;40484;50.198;19.576;2022-09-30T17:54:18;101427.59;;;16.86;55.83
54588;BME280;40484;50.198;19.576;2022-09-30T17:59:20;101449.74;;;16.75;56.08
54588;BME280;40484;50.198;19.576;2022-09-30T18:04:22;101446.01;;;16.59;56.42
54588;BME280;40484;50.198;19.576;2022-09-30T18:09:25;101447.48;;;16.59;56.61
54588;BME280;40484;50.198;19.576;2022-09-30T18:14:27;101460.27;;;16.74;56.36
54588;BME280;40484;50.198;19.576;2022-09-30T18:19:31;101460.99;;;16.84;56.17
54588;BME280;40484;50.198;19.576;2022-09-30T18:24:33;101457.61;;;16.99;55.94
54588;BME280;40484;50.198;19.576;2022-09-30T18:30:38;101467.06;;;17.24;55.44
54588;BME280;40484;50.198;19.576;2022-09-30T18:35:40;101466.92;;;17.31;55.20
54588;BME280;40484;50.198;19.576;2022-09-30T18:40:43;101473.51;;;17.28;55.19
54588;BME280;40484;50.198;19.576;2022-09-30T18:45:55;101462.83;;;17.36;55.01
54588;BME280;40484;50.198;19.576;2022-09-30T18:50:50;101466.56;;;17.40;54.91
54588;BME280;40484;50.198;19.576;2022-09-30T18:55:52;101474.03;;;17.45;54.79
54588;BME280;40484;50.198;19.576;2022-09-30T19:00:54;101479.68;;;17.46;54.75
54588;BME280;40484;50.198;19.576;2022-09-30T19:05:56;101483.57;;;17.27;54.83
54588;BME280;40484;50.198;19.576;2022-09-30T19:10:58;101491.29;;;16.94;55.33
54588;BME280;40484;50.198;19.576;2022-09-30T19:16:03;101474.84;;;16.70;55.80
54588;BME280;40484;50.198;19.576;2022-09-30T19:21:10;101468.20;;;16.64;56.09
54588;BME280;40484;50.198;19.576;2022-09-30T19:26:12;101471.70;;;16.53;56.37
54588;BME280;40484;50.198;19.576;2022-09-30T19:31:16;101462.67;;;16.69;56.23
54588;BME280;40484;50.198;19.576;2022-09-30T19:36:19;101475.35;;;16.78;56.04
54588;BME280;40484;50.198;19.576;2022-09-30T19:41:23;101476.80;;;16.65;56.28
54588;BME280;40484;50.198;19.576;2022-09-30T19:46:24;101481.03;;;16.33;56.98
54588;BME280;40484;50.198;19.576;2022-09-30T19:51:26;101489.69;;;16.11;57.73
54588;BME280;40484;50.198;19.576;2022-09-30T19:56:57;101481.41;;;16.20;57.64
54588;BME280;40484;50.198;19.576;2022-09-30T20:01:59;101479.95;;;16.20;57.71
54588;BME280;40484;50.198;19.576;2022-09-30T20:07:01;101484.90;;;16.24;57.83
54588;BME280;40484;50.198;19.576;2022-09-30T20:12:02;101482.55;;;16.29;57.74
54588;BME280;40484;50.198;19.576;2022-09-30T20:17:04;101484.14;;;16.19;57.82
54588;BME280;40484;50.198;19.576;2022-09-30T20:22:06;101488.98;;;15.83;58.79
54588;BME280;40484;50.198;19.576;2022-09-30T20:27:07;101503.35;;;15.72;59.29
54588;BME280;40484;50.198;19.576;2022-09-30T20:32:10;101504.65;;;15.64;59.53
54588;BME280;40484;50.198;19.576;2022-09-30T20:37:12;101499.18;;;15.66;59.65
54588;BME280;40484;50.198;19.576;2022-09-30T20:42:14;101499.30;;;15.55;60.00
54588;BME280;40484;50.198;19.576;2022-09-30T20:47:15;101507.10;;;15.48;60.16
54588;BME280;40484;50.198;19.576;2022-09-30T20:52:17;101504.85;;;15.44;60.39
54588;BME280;40484;50.198;19.576;2022-09-30T20:57:19;101513.15;;;15.53;60.26
54588;BME280;40484;50.198;19.576;2022-09-30T21:02:21;101502.18;;;15.38;60.34
54588;BME280;40484;50.198;19.576;2022-09-30T21:07:27;101499.95;;;15.28;60.72
54588;BME280;40484;50.198;19.576;2022-09-30T21:12:29;101495.91;;;15.38;60.65
54588;BME280;40484;50.198;19.576;2022-09-30T21:17:31;101483.66;;;15.71;59.92
54588;BME280;40484;50.198;19.576;2022-09-30T21:22:32;101490.91;;;15.97;59.37
54588;BME280;40484;50.198;19.576;2022-09-30T21:27:34;101487.96;;;15.98;59.09
54588;BME280;40484;50.198;19.576;2022-09-30T21:32:36;101495.52;;;16.15;58.61
54588;BME280;40484;50.198;19.576;2022-09-30T21:38:05;101495.23;;;16.21;58.45
54588;BME280;40484;50.198;19.576;2022-09-30T21:43:07;101494.47;;;16.13;58.42
54588;BME280;40484;50.198;19.576;2022-09-30T21:48:08;101487.05;;;16.03;58.38
54588;BME280;40484;50.198;19.576;2022-09-30T21:53:11;101482.36;;;16.09;58.22
54588;BME280;40484;50.198;19.576;2022-09-30T21:58:12;101496.95;;;16.32;57.79
54588;BME280;40484;50.198;19.576;2022-09-30T22:03:15;101502.41;;;16.32;57.54
54588;BME280;40484;50.198;19.576;2022-09-30T22:08:16;101494.07;;;16.30;57.51
54588;BME280;40484;50.198;19.576;2022-09-30T22:13:18;101492.30;;;16.21;57.47
54588;BME280;40484;50.198;19.576;2022-09-30T22:18:20;101480.94;;;16.08;57.65
54588;BME280;40484;50.198;19.576;2022-09-30T22:23:21;101479.38;;;16.13;57.67
54588;BME280;40484;50.198;19.576;2022-09-30T22:28:23;101494.23;;;16.16;57.51
54588;BME280;40484;50.198;19.576;2022-09-30T22:33:25;101489.58;;;16.03;57.75
54588;BME280;40484;50.198;19.576;2022-09-30T22:39:05;101488.88;;;15.92;57.97
54588;BME280;40484;50.198;19.576;2022-09-30T22:44:06;101486.33;;;15.94;58.08
54588;BME280;40484;50.198;19.576;2022-09-30T22:49:08;101478.30;;;15.98;57.83
54588;BME280;40484;50.198;19.576;2022-09-30T22:54:36;101481.54;;;16.07;57.56
54588;BME280;40484;50.198;19.576;2022-09-30T22:59:37;101478.50;;;16.33;57.25
54588;BME280;40484;50.198;19.576;2022-09-30T23:04:39;101479.85;;;16.42;56.77
54588;BME280;40484;50.198;19.576;2022-09-30T23:09:41;101494.16;;;16.23;57.07
54588;BME280;40484;50.198;19.576;2022-09-30T23:14:43;101494.71;;;15.94;57.54
54588;BME280;40484;50.198;19.576;2022-09-30T23:19:44;101491.92;;;15.83;57.92
54588;BME280;40484;50.198;19.576;2022-09-30T23:24:46;101497.62;;;15.56;58.50
54588;BME280;40484;50.198;19.576;2022-09-30T23:29:48;101496.78;;;15.55;58.63
54588;BME280;40484;50.198;19.576;2022-09-30T23:34:49;101489.27;;;15.51;58.66
54588;BME280;40484;50.198;19.576;2022-09-30T23:39:51;101480.01;;;15.56;58.74
54588;BME280;40484;50.198;19.576;2022-09-30T23:44:52;101488.27;;;15.66;58.65
54588;BME280;40484;50.198;19.576;2022-09-30T23:49:54;101481.92;;;15.77;58.42
54588;BME280;40484;50.198;19.576;2022-09-30T23:54:56;101475.61;;;15.78;58.20
54588;BME280;40484;50.198;19.576;2022-09-30T23:59:57;101485.48;;;15.54;58.54
